sensor_id;sensor_type;location;lat;lon;timestamp;P1;durP1;ratioP1;P2;durP2;ratioP2
19347;SDS011;9810;52.480;9.806;2022-10-31T00:00:43;17.77;;;8.70;;
19347;SDS011;9810;52.480;9.806;2022-10-31T00:03:11;18.00;;;10.07;;
19347;SDS011;9810;52.480;9.806;2022-10-31T00:05:40;19.17;;;8.07;;
19347;SDS011;9810;52.480;9.806;2022-10-31T00:08:10;21.77;;;9.47;;
19347;SDS011;9810;52.480;9.806;2022-10-31T00:10:38;16.03;;;8.57;;
19347;SDS011;9810;52.480;9.806;2022-10-31T00:13:05;19.07;;;8.03;;
19347;SDS011;9810;52.480;9.806;2022-10-31T00:15:33;18.40;;;8.83;;
19347;SDS011;9810;52.480;9.806;2022-10-31T00:18:00;13.47;;;7.83;;
19347;SDS011;9810;52.480;9.806;2022-10-31T00:20:28;16.33;;;7.43;;
19347;SDS011;9810;52.480;9.806;2022-10-31T00:22:57;22.97;;;7.40;;
19347;SDS011;9810;52.480;9.806;2022-10-31T00:25:26;22.30;;;8.07;;
19347;SDS011;9810;52.480;9.806;2022-10-31T00:27:55;10.53;;;7.20;;
19347;SDS011;9810;52.480;9.806;2022-10-31T00:30:22;16.57;;;8.37;;
19347;SDS011;9810;52.480;9.806;2022-10-31T00:32:50;14.90;;;8.27;;
19347;SDS011;9810;52.480;9.806;2022-10-31T00:35:17;15.20;;;7.50;;
19347;SDS011;9810;52.480;9.806;2022-10-31T00:37:44;17.23;;;8.30;;
19347;SDS011;9810;52.480;9.806;2022-10-31T00:40:11;19.57;;;8.67;;
19347;SDS011;9810;52.480;9.806;2022-10-31T00:42:40;19.03;;;7.87;;
19347;SDS011;9810;52.480;9.806;2022-10-31T00:45:08;18.27;;;8.60;;
19347;SDS011;9810;52.480;9.806;2022-10-31T00:47:35;19.40;;;8.67;;
19347;SDS011;9810;52.480;9.806;2022-10-31T00:50:03;24.23;;;9.07;;
19347;SDS011;9810;52.480;9.806;2022-10-31T00:52:31;16.10;;;9.27;;
19347;SDS011;9810;52.480;9.806;2022-10-31T00:54:58;18.50;;;9.07;;
19347;SDS011;9810;52.480;9.806;2022-10-31T00:57:25;16.83;;;9.33;;
19347;SDS011;9810;52.480;9.806;2022-10-31T00:59:56;20.50;;;9.77;;
19347;SDS011;9810;52.480;9.806;2022-10-31T01:02:23;19.10;;;10.73;;
19347;SDS011;9810;52.480;9.806;2022-10-31T01:04:51;26.20;;;11.53;;
19347;SDS011;9810;52.480;9.806;2022-10-31T01:07:18;23.67;;;11.23;;
19347;SDS011;9810;52.480;9.806;2022-10-31T01:09:46;22.97;;;11.77;;
19347;SDS011;9810;52.480;9.806;2022-10-31T01:12:13;21.40;;;11.00;;
19347;SDS011;9810;52.480;9.806;2022-10-31T01:14:42;26.05;;;12.85;;
19347;SDS011;9810;52.480;9.806;2022-10-31T01:17:11;25.10;;;13.10;;
19347;SDS011;9810;52.480;9.806;2022-10-31T01:19:39;29.87;;;13.13;;
19347;SDS011;9810;52.480;9.806;2022-10-31T01:22:06;22.97;;;13.53;;
19347;SDS011;9810;52.480;9.806;2022-10-31T01:24:33;27.27;;;14.23;;
19347;SDS011;9810;52.480;9.806;2022-10-31T01:27:00;28.77;;;14.83;;
19347;SDS011;9810;52.480;9.806;2022-10-31T01:29:27;21.93;;;14.67;;
19347;SDS011;9810;52.480;9.806;2022-10-31T01:31:54;27.50;;;14.57;;
19347;SDS011;9810;52.480;9.806;2022-10-31T01:34:23;36.33;;;16.07;;
19347;SDS011;9810;52.480;9.806;2022-10-31T01:36:51;32.80;;;17.80;;
19347;SDS011;9810;52.480;9.806;2022-10-31T01:39:18;37.87;;;17.13;;
19347;SDS011;9810;52.480;9.806;2022-10-31T01:41:46;34.73;;;17.30;;
19347;SDS011;9810;52.480;9.806;2022-10-31T01:47:19;38.23;;;18.40;;
19347;SDS011;9810;52.480;9.806;2022-10-31T01:49:51;33.23;;;17.33;;
19347;SDS011;9810;52.480;9.806;2022-10-31T01:52:22;33.73;;;17.77;;
19347;SDS011;9810;52.480;9.806;2022-10-31T01:54:54;39.87;;;18.97;;
19347;SDS011;9810;52.480;9.806;2022-10-31T01:57:26;38.77;;;17.53;;
19347;SDS011;9810;52.480;9.806;2022-10-31T01:59:57;34.57;;;18.23;;
19347;SDS011;9810;52.480;9.806;2022-10-31T02:02:27;38.17;;;18.97;;
19347;SDS011;9810;52.480;9.806;2022-10-31T02:04:58;35.27;;;20.20;;
19347;SDS011;9810;52.480;9.806;2022-10-31T02:07:30;41.40;;;19.80;;
19347;SDS011;9810;52.480;9.806;2022-10-31T02:10:03;36.23;;;19.20;;
19347;SDS011;9810;52.480;9.806;2022-10-31T02:12:30;41.20;;;19.27;;
19347;SDS011;9810;52.480;9.806;2022-10-31T02:14:59;35.90;;;19.97;;
19347;SDS011;9810;52.480;9.806;2022-10-31T02:17:28;46.43;;;21.43;;
19347;SDS011;9810;52.480;9.806;2022-10-31T02:20:00;38.67;;;20.37;;
19347;SDS011;9810;52.480;9.806;2022-10-31T02:22:36;37.73;;;19.83;;
19347;SDS011;9810;52.480;9.806;2022-10-31T02:25:14;45.33;;;20.30;;
19347;SDS011;9810;52.480;9.806;2022-10-31T02:28:00;40.33;;;21.23;;
19347;SDS011;9810;52.480;9.806;2022-10-31T02:30:59;37.20;;;19.77;;
19347;SDS011;9810;52.480;9.806;2022-10-31T02:33:33;31.63;;;19.83;;
19347;SDS011;9810;52.480;9.806;2022-10-31T02:36:09;40.40;;;21.17;;
19347;SDS011;9810;52.480;9.806;2022-10-31T02:38:45;47.00;;;22.27;;
19347;SDS011;9810;52.480;9.806;2022-10-31T02:41:19;44.37;;;21.10;;
19347;SDS011;9810;52.480;9.806;2022-10-31T02:43:55;42.60;;;21.10;;
19347;SDS011;9810;52.480;9.806;2022-10-31T02:46:32;42.27;;;20.60;;
19347;SDS011;9810;52.480;9.806;2022-10-31T02:49:05;35.40;;;20.80;;
19347;SDS011;9810;52.480;9.806;2022-10-31T02:51:38;40.10;;;19.50;;
19347;SDS011;9810;52.480;9.806;2022-10-31T02:54:15;42.53;;;20.57;;
19347;SDS011;9810;52.480;9.806;2022-10-31T02:56:46;44.93;;;20.37;;
19347;SDS011;9810;52.480;9.806;2022-10-31T02:59:15;36.53;;;20.37;;
19347;SDS011;9810;52.480;9.806;2022-10-31T03:01:47;40.10;;;21.13;;
19347;SDS011;9810;52.480;9.806;2022-10-31T03:04:29;39.40;;;20.03;;
19347;SDS011;9810;52.480;9.806;2022-10-31T03:07:08;41.13;;;22.37;;
19347;SDS011;9810;52.480;9.806;2022-10-31T03:09:42;45.03;;;21.33;;
19347;SDS011;9810;52.480;9.806;2022-10-31T03:12:18;49.13;;;21.83;;
19347;SDS011;9810;52.480;9.806;2022-10-31T03:14:53;43.63;;;21.57;;
19347;SDS011;9810;52.480;9.806;2022-10-31T03:17:33;42.60;;;21.40;;
19347;SDS011;9810;52.480;9.806;2022-10-31T03:20:03;41.10;;;20.63;;
19347;SDS011;9810;52.480;9.806;2022-10-31T03:22:32;37.70;;;19.57;;
19347;SDS011;9810;52.480;9.806;2022-10-31T03:25:02;44.90;;;22.47;;
19347;SDS011;9810;52.480;9.806;2022-10-31T03:27:32;38.00;;;21.00;;
19347;SDS011;9810;52.480;9.806;2022-10-31T03:30:03;41.67;;;21.80;;
19347;SDS011;9810;52.480;9.806;2022-10-31T03:32:34;32.63;;;18.30;;
19347;SDS011;9810;52.480;9.806;2022-10-31T03:35:06;35.93;;;20.17;;
19347;SDS011;9810;52.480;9.806;2022-10-31T03:37:36;40.27;;;21.03;;
19347;SDS011;9810;52.480;9.806;2022-10-31T03:40:06;38.53;;;21.43;;
19347;SDS011;9810;52.480;9.806;2022-10-31T03:42:37;35.83;;;21.83;;
19347;SDS011;9810;52.480;9.806;2022-10-31T03:45:08;40.33;;;21.00;;
19347;SDS011;9810;52.480;9.806;2022-10-31T03:47:39;50.40;;;23.20;;
19347;SDS011;9810;52.480;9.806;2022-10-31T03:50:08;34.90;;;19.83;;
19347;SDS011;9810;52.480;9.806;2022-10-31T03:52:39;41.60;;;20.07;;
19347;SDS011;9810;52.480;9.806;2022-10-31T03:55:13;39.83;;;19.47;;
19347;SDS011;9810;52.480;9.806;2022-10-31T03:57:45;41.83;;;16.23;;
19347;SDS011;9810;52.480;9.806;2022-10-31T04:00:19;49.27;;;18.10;;
19347;SDS011;9810;52.480;9.806;2022-10-31T04:02:49;38.50;;;19.60;;
19347;SDS011;9810;52.480;9.806;2022-10-31T04:05:20;47.33;;;22.43;;
19347;SDS011;9810;52.480;9.806;2022-10-31T04:07:49;50.83;;;25.70;;
19347;SDS011;9810;52.480;9.806;2022-10-31T04:10:19;55.80;;;23.30;;
19347;SDS011;9810;52.480;9.806;2022-10-31T04:12:49;44.53;;;23.17;;
19347;SDS011;9810;52.480;9.806;2022-10-31T04:15:20;63.63;;;22.73;;
19347;SDS011;9810;52.480;9.806;2022-10-31T04:17:52;29.87;;;18.37;;
19347;SDS011;9810;52.480;9.806;2022-10-31T04:20:29;28.57;;;16.97;;
19347;SDS011;9810;52.480;9.806;2022-10-31T04:22:56;31.63;;;16.93;;
19347;SDS011;9810;52.480;9.806;2022-10-31T04:25:24;27.83;;;16.67;;
19347;SDS011;9810;52.480;9.806;2022-10-31T04:27:51;22.43;;;14.77;;
19347;SDS011;9810;52.480;9.806;2022-10-31T04:30:18;27.03;;;14.80;;
19347;SDS011;9810;52.480;9.806;2022-10-31T04:32:45;156.33;;;22.73;;
19347;SDS011;9810;52.480;9.806;2022-10-31T04:35:14;27.67;;;16.07;;
19347;SDS011;9810;52.480;9.806;2022-10-31T04:37:41;30.63;;;17.43;;
19347;SDS011;9810;52.480;9.806;2022-10-31T04:40:08;25.63;;;13.87;;
19347;SDS011;9810;52.480;9.806;2022-10-31T04:42:36;27.97;;;16.43;;
19347;SDS011;9810;52.480;9.806;2022-10-31T04:45:03;33.27;;;16.57;;
19347;SDS011;9810;52.480;9.806;2022-10-31T04:47:31;25.83;;;14.87;;
19347;SDS011;9810;52.480;9.806;2022-10-31T04:49:59;26.97;;;15.53;;
19347;SDS011;9810;52.480;9.806;2022-10-31T04:52:28;21.80;;;14.20;;
19347;SDS011;9810;52.480;9.806;2022-10-31T04:54:55;23.03;;;13.53;;
19347;SDS011;9810;52.480;9.806;2022-10-31T04:57:22;24.83;;;14.87;;
19347;SDS011;9810;52.480;9.806;2022-10-31T04:59:50;20.67;;;13.27;;
19347;SDS011;9810;52.480;9.806;2022-10-31T05:02:16;17.37;;;10.97;;
19347;SDS011;9810;52.480;9.806;2022-10-31T05:04:44;12.90;;;9.73;;
19347;SDS011;9810;52.480;9.806;2022-10-31T05:07:11;13.90;;;10.30;;
19347;SDS011;9810;52.480;9.806;2022-10-31T05:09:40;16.73;;;10.93;;
19347;SDS011;9810;52.480;9.806;2022-10-31T05:12:07;22.53;;;11.83;;
19347;SDS011;9810;52.480;9.806;2022-10-31T05:14:34;17.33;;;9.67;;
19347;SDS011;9810;52.480;9.806;2022-10-31T05:17:01;30.80;;;16.97;;
19347;SDS011;9810;52.480;9.806;2022-10-31T05:19:29;33.37;;;17.50;;
19347;SDS011;9810;52.480;9.806;2022-10-31T05:21:56;33.07;;;18.70;;
19347;SDS011;9810;52.480;9.806;2022-10-31T05:24:23;37.93;;;18.77;;
19347;SDS011;9810;52.480;9.806;2022-10-31T05:26:54;13.03;;;11.13;;
19347;SDS011;9810;52.480;9.806;2022-10-31T05:29:21;13.60;;;10.40;;
19347;SDS011;9810;52.480;9.806;2022-10-31T05:31:48;20.77;;;11.73;;
19347;SDS011;9810;52.480;9.806;2022-10-31T05:34:15;13.23;;;9.30;;
19347;SDS011;9810;52.480;9.806;2022-10-31T05:36:43;22.80;;;12.43;;
19347;SDS011;9810;52.480;9.806;2022-10-31T05:39:10;15.27;;;10.67;;
19347;SDS011;9810;52.480;9.806;2022-10-31T05:41:37;11.67;;;9.93;;
19347;SDS011;9810;52.480;9.806;2022-10-31T05:44:06;19.33;;;9.10;;
19347;SDS011;9810;52.480;9.806;2022-10-31T05:46:33;66.53;;;13.90;;
19347;SDS011;9810;52.480;9.806;2022-10-31T05:49:01;324.67;;;27.23;;
19347;SDS011;9810;52.480;9.806;2022-10-31T05:51:28;245.80;;;19.20;;
19347;SDS011;9810;52.480;9.806;2022-10-31T05:53:55;93.63;;;14.70;;
19347;SDS011;9810;52.480;9.806;2022-10-31T05:56:22;135.47;;;15.03;;
19347;SDS011;9810;52.480;9.806;2022-10-31T05:58:49;151.97;;;16.67;;
19347;SDS011;9810;52.480;9.806;2022-10-31T06:01:18;231.10;;;19.33;;
19347;SDS011;9810;52.480;9.806;2022-10-31T06:03:45;102.63;;;15.07;;
19347;SDS011;9810;52.480;9.806;2022-10-31T06:06:13;19.90;;;12.70;;
19347;SDS011;9810;52.480;9.806;2022-10-31T06:08:40;138.87;;;19.67;;
19347;SDS011;9810;52.480;9.806;2022-10-31T06:11:07;41.27;;;14.40;;
19347;SDS011;9810;52.480;9.806;2022-10-31T06:13:34;111.80;;;17.53;;
19347;SDS011;9810;52.480;9.806;2022-10-31T06:16:02;36.53;;;15.20;;
19347;SDS011;9810;52.480;9.806;2022-10-31T06:18:31;32.93;;;15.80;;
19347;SDS011;9810;52.480;9.806;2022-10-31T06:21:00;63.30;;;18.53;;
19347;SDS011;9810;52.480;9.806;2022-10-31T06:23:27;34.43;;;18.63;;
19347;SDS011;9810;52.480;9.806;2022-10-31T06:25:54;41.40;;;18.20;;
19347;SDS011;9810;52.480;9.806;2022-10-31T06:28:24;29.50;;;16.43;;
19347;SDS011;9810;52.480;9.806;2022-10-31T06:30:52;25.23;;;15.57;;
19347;SDS011;9810;52.480;9.806;2022-10-31T06:33:22;31.30;;;15.27;;
19347;SDS011;9810;52.480;9.806;2022-10-31T06:35:51;36.57;;;17.70;;
19347;SDS011;9810;52.480;9.806;2022-10-31T06:38:18;39.90;;;18.77;;
19347;SDS011;9810;52.480;9.806;2022-10-31T06:40:46;37.77;;;19.50;;
19347;SDS011;9810;52.480;9.806;2022-10-31T06:43:13;39.97;;;20.03;;
19347;SDS011;9810;52.480;9.806;2022-10-31T06:45:40;37.00;;;20.03;;
19347;SDS011;9810;52.480;9.806;2022-10-31T06:48:08;37.27;;;20.13;;
19347;SDS011;9810;52.480;9.806;2022-10-31T06:50:35;39.60;;;19.90;;
19347;SDS011;9810;52.480;9.806;2022-10-31T06:53:04;33.40;;;19.70;;
19347;SDS011;9810;52.480;9.806;2022-10-31T06:55:33;33.50;;;19.37;;
19347;SDS011;9810;52.480;9.806;2022-10-31T06:58:00;32.07;;;16.40;;
19347;SDS011;9810;52.480;9.806;2022-10-31T07:00:29;23.73;;;14.17;;
19347;SDS011;9810;52.480;9.806;2022-10-31T07:02:57;26.40;;;15.53;;
19347;SDS011;9810;52.480;9.806;2022-10-31T07:05:26;23.03;;;14.87;;
19347;SDS011;9810;52.480;9.806;2022-10-31T07:07:54;21.57;;;13.70;;
19347;SDS011;9810;52.480;9.806;2022-10-31T07:11:21;19.87;;;13.13;;
19347;SDS011;9810;52.480;9.806;2022-10-31T07:13:50;18.73;;;13.27;;
19347;SDS011;9810;52.480;9.806;2022-10-31T07:16:17;18.00;;;14.47;;
19347;SDS011;9810;52.480;9.806;2022-10-31T07:18:53;19.13;;;13.33;;
19347;SDS011;9810;52.480;9.806;2022-10-31T07:21:21;21.50;;;12.87;;
19347;SDS011;9810;52.480;9.806;2022-10-31T07:23:50;39.43;;;14.73;;
19347;SDS011;9810;52.480;9.806;2022-10-31T07:26:18;71.80;;;17.83;;
19347;SDS011;9810;52.480;9.806;2022-10-31T07:28:47;23.03;;;13.80;;
19347;SDS011;9810;52.480;9.806;2022-10-31T07:31:14;17.03;;;12.53;;
19347;SDS011;9810;52.480;9.806;2022-10-31T07:33:44;19.73;;;13.23;;
19347;SDS011;9810;52.480;9.806;2022-10-31T07:36:11;24.73;;;13.33;;
19347;SDS011;9810;52.480;9.806;2022-10-31T07:38:38;15.50;;;11.60;;
19347;SDS011;9810;52.480;9.806;2022-10-31T07:41:06;18.83;;;12.20;;
19347;SDS011;9810;52.480;9.806;2022-10-31T07:43:33;17.07;;;12.53;;
19347;SDS011;9810;52.480;9.806;2022-10-31T07:46:02;15.37;;;11.47;;
19347;SDS011;9810;52.480;9.806;2022-10-31T07:51:22;14.37;;;10.60;;
19347;SDS011;9810;52.480;9.806;2022-10-31T07:53:50;11.83;;;9.33;;
19347;SDS011;9810;52.480;9.806;2022-10-31T07:56:17;12.27;;;10.07;;
19347;SDS011;9810;52.480;9.806;2022-10-31T07:58:44;17.57;;;11.73;;
19347;SDS011;9810;52.480;9.806;2022-10-31T08:01:14;14.20;;;11.93;;
19347;SDS011;9810;52.480;9.806;2022-10-31T08:03:41;16.37;;;12.20;;
19347;SDS011;9810;52.480;9.806;2022-10-31T08:06:14;20.90;;;13.20;;
19347;SDS011;9810;52.480;9.806;2022-10-31T08:08:41;20.87;;;14.53;;
19347;SDS011;9810;52.480;9.806;2022-10-31T08:11:12;24.10;;;15.67;;
19347;SDS011;9810;52.480;9.806;2022-10-31T08:13:39;26.53;;;15.47;;
19347;SDS011;9810;52.480;9.806;2022-10-31T08:16:07;28.07;;;17.93;;
19347;SDS011;9810;52.480;9.806;2022-10-31T08:18:36;26.07;;;15.87;;
19347;SDS011;9810;52.480;9.806;2022-10-31T08:21:04;27.33;;;15.37;;
19347;SDS011;9810;52.480;9.806;2022-10-31T08:23:32;22.83;;;14.43;;
19347;SDS011;9810;52.480;9.806;2022-10-31T08:25:59;26.33;;;15.97;;
19347;SDS011;9810;52.480;9.806;2022-10-31T08:28:27;29.70;;;16.30;;
19347;SDS011;9810;52.480;9.806;2022-10-31T08:30:54;23.50;;;15.47;;
19347;SDS011;9810;52.480;9.806;2022-10-31T08:33:23;32.10;;;15.73;;
19347;SDS011;9810;52.480;9.806;2022-10-31T08:35:54;22.67;;;14.00;;
19347;SDS011;9810;52.480;9.806;2022-10-31T08:38:21;30.40;;;16.53;;
19347;SDS011;9810;52.480;9.806;2022-10-31T08:40:49;25.57;;;14.90;;
19347;SDS011;9810;52.480;9.806;2022-10-31T08:43:17;26.73;;;13.97;;
19347;SDS011;9810;52.480;9.806;2022-10-31T08:45:47;24.27;;;14.37;;
19347;SDS011;9810;52.480;9.806;2022-10-31T08:48:16;29.03;;;16.90;;
19347;SDS011;9810;52.480;9.806;2022-10-31T08:50:44;25.03;;;16.40;;
19347;SDS011;9810;52.480;9.806;2022-10-31T08:53:16;25.70;;;15.20;;
19347;SDS011;9810;52.480;9.806;2022-10-31T08:55:45;30.70;;;16.53;;
19347;SDS011;9810;52.480;9.806;2022-10-31T08:58:14;27.43;;;15.77;;
19347;SDS011;9810;52.480;9.806;2022-10-31T09:00:45;25.50;;;14.97;;
19347;SDS011;9810;52.480;9.806;2022-10-31T09:03:15;27.05;;;15.05;;
19347;SDS011;9810;52.480;9.806;2022-10-31T09:05:45;30.20;;;15.70;;
19347;SDS011;9810;52.480;9.806;2022-10-31T09:08:15;23.80;;;15.10;;
19347;SDS011;9810;52.480;9.806;2022-10-31T09:10:43;31.83;;;15.65;;
19347;SDS011;9810;52.480;9.806;2022-10-31T09:13:11;27.98;;;17.02;;
19347;SDS011;9810;52.480;9.806;2022-10-31T11:25:26;32.50;;;15.50;;
19347;SDS011;9810;52.480;9.806;2022-10-31T11:31:45;28.40;;;14.37;;
19347;SDS011;9810;52.480;9.806;2022-10-31T13:12:29;42.40;;;21.77;;
19347;SDS011;9810;52.480;9.806;2022-10-31T13:15:03;46.97;;;22.13;;
19347;SDS011;9810;52.480;9.806;2022-10-31T13:17:38;47.53;;;22.27;;
19347;SDS011;9810;52.480;9.806;2022-10-31T13:20:16;47.20;;;23.20;;
19347;SDS011;9810;52.480;9.806;2022-10-31T13:22:49;40.20;;;20.60;;
19347;SDS011;9810;52.480;9.806;2022-10-31T13:25:21;46.03;;;21.83;;
19347;SDS011;9810;52.480;9.806;2022-10-31T13:27:51;41.60;;;20.53;;
19347;SDS011;9810;52.480;9.806;2022-10-31T13:30:25;41.50;;;20.30;;
19347;SDS011;9810;52.480;9.806;2022-10-31T13:32:58;38.73;;;19.23;;
19347;SDS011;9810;52.480;9.806;2022-10-31T13:35:30;39.47;;;19.20;;
19347;SDS011;9810;52.480;9.806;2022-10-31T13:38:16;43.83;;;20.90;;
19347;SDS011;9810;52.480;9.806;2022-10-31T13:40:53;38.43;;;17.43;;
19347;SDS011;9810;52.480;9.806;2022-10-31T13:43:27;41.20;;;20.00;;
19347;SDS011;9810;52.480;9.806;2022-10-31T13:46:00;37.60;;;18.17;;
19347;SDS011;9810;52.480;9.806;2022-10-31T13:48:34;40.23;;;18.67;;
19347;SDS011;9810;52.480;9.806;2022-10-31T13:51:05;36.63;;;18.10;;
19347;SDS011;9810;52.480;9.806;2022-10-31T13:53:39;41.25;;;20.65;;
19347;SDS011;9810;52.480;9.806;2022-10-31T13:56:18;38.13;;;17.70;;
19347;SDS011;9810;52.480;9.806;2022-10-31T13:58:58;35.00;;;17.97;;
19347;SDS011;9810;52.480;9.806;2022-10-31T14:01:31;37.40;;;19.23;;
19347;SDS011;9810;52.480;9.806;2022-10-31T14:04:02;33.43;;;16.97;;
19347;SDS011;9810;52.480;9.806;2022-10-31T14:06:35;41.67;;;17.43;;
19347;SDS011;9810;52.480;9.806;2022-10-31T14:09:31;33.20;;;17.83;;
19347;SDS011;9810;52.480;9.806;2022-10-31T14:12:02;47.77;;;18.50;;
19347;SDS011;9810;52.480;9.806;2022-10-31T14:14:47;36.20;;;16.27;;
19347;SDS011;9810;52.480;9.806;2022-10-31T14:17:18;34.97;;;15.57;;
19347;SDS011;9810;52.480;9.806;2022-10-31T14:19:57;33.60;;;15.97;;
19347;SDS011;9810;52.480;9.806;2022-10-31T14:22:34;36.63;;;15.40;;
19347;SDS011;9810;52.480;9.806;2022-10-31T14:27:53;35.57;;;16.77;;
19347;SDS011;9810;52.480;9.806;2022-10-31T14:30:22;34.53;;;15.80;;
19347;SDS011;9810;52.480;9.806;2022-10-31T14:32:53;29.40;;;15.10;;
19347;SDS011;9810;52.480;9.806;2022-10-31T14:35:25;27.37;;;14.57;;
19347;SDS011;9810;52.480;9.806;2022-10-31T14:41:06;28.83;;;14.10;;
19347;SDS011;9810;52.480;9.806;2022-10-31T14:43:58;33.40;;;13.77;;
19347;SDS011;9810;52.480;9.806;2022-10-31T14:46:50;30.00;;;14.23;;
19347;SDS011;9810;52.480;9.806;2022-10-31T14:49:37;36.80;;;13.87;;
19347;SDS011;9810;52.480;9.806;2022-10-31T14:52:14;34.73;;;12.80;;
19347;SDS011;9810;52.480;9.806;2022-10-31T14:54:43;32.53;;;14.57;;
19347;SDS011;9810;52.480;9.806;2022-10-31T14:57:14;29.93;;;14.00;;
19347;SDS011;9810;52.480;9.806;2022-10-31T14:59:47;32.57;;;13.70;;
19347;SDS011;9810;52.480;9.806;2022-10-31T15:02:18;33.33;;;13.93;;
19347;SDS011;9810;52.480;9.806;2022-10-31T15:04:50;33.80;;;14.27;;
19347;SDS011;9810;52.480;9.806;2022-10-31T15:07:19;31.27;;;14.07;;
19347;SDS011;9810;52.480;9.806;2022-10-31T15:09:57;29.27;;;12.63;;
19347;SDS011;9810;52.480;9.806;2022-10-31T15:12:26;21.70;;;10.77;;
19347;SDS011;9810;52.480;9.806;2022-10-31T15:14:56;30.90;;;12.90;;
19347;SDS011;9810;52.480;9.806;2022-10-31T15:17:25;30.53;;;12.90;;
19347;SDS011;9810;52.480;9.806;2022-10-31T15:19:57;25.27;;;11.07;;
19347;SDS011;9810;52.480;9.806;2022-10-31T15:29:05;26.63;;;13.33;;
19347;SDS011;9810;52.480;9.806;2022-10-31T15:35:35;28.90;;;13.50;;
19347;SDS011;9810;52.480;9.806;2022-10-31T15:38:03;24.63;;;12.80;;
19347;SDS011;9810;52.480;9.806;2022-10-31T15:40:32;32.40;;;15.00;;
19347;SDS011;9810;52.480;9.806;2022-10-31T15:43:00;29.73;;;13.80;;
19347;SDS011;9810;52.480;9.806;2022-10-31T15:45:34;27.70;;;14.03;;
19347;SDS011;9810;52.480;9.806;2022-10-31T15:48:15;30.53;;;14.37;;
19347;SDS011;9810;52.480;9.806;2022-10-31T15:51:12;30.60;;;13.70;;
19347;SDS011;9810;52.480;9.806;2022-10-31T15:53:41;33.07;;;13.63;;
19347;SDS011;9810;52.480;9.806;2022-10-31T15:56:18;29.10;;;14.47;;
19347;SDS011;9810;52.480;9.806;2022-10-31T15:58:48;29.60;;;14.23;;
19347;SDS011;9810;52.480;9.806;2022-10-31T16:01:20;31.07;;;15.07;;
19347;SDS011;9810;52.480;9.806;2022-10-31T16:04:04;28.83;;;16.53;;
19347;SDS011;9810;52.480;9.806;2022-10-31T16:06:57;36.60;;;16.23;;
19347;SDS011;9810;52.480;9.806;2022-10-31T16:09:27;30.93;;;13.13;;
19347;SDS011;9810;52.480;9.806;2022-10-31T16:11:54;38.93;;;16.73;;
19347;SDS011;9810;52.480;9.806;2022-10-31T16:14:25;37.10;;;18.10;;
19347;SDS011;9810;52.480;9.806;2022-10-31T16:16:57;35.73;;;16.43;;
19347;SDS011;9810;52.480;9.806;2022-10-31T16:19:28;33.33;;;16.50;;
19347;SDS011;9810;52.480;9.806;2022-10-31T16:22:18;29.97;;;15.83;;
19347;SDS011;9810;52.480;9.806;2022-10-31T16:24:49;40.63;;;17.67;;
19347;SDS011;9810;52.480;9.806;2022-10-31T16:27:20;36.00;;;17.83;;
19347;SDS011;9810;52.480;9.806;2022-10-31T16:29:52;40.73;;;19.00;;
19347;SDS011;9810;52.480;9.806;2022-10-31T16:32:26;37.03;;;16.70;;
19347;SDS011;9810;52.480;9.806;2022-10-31T16:35:01;42.28;;;20.73;;
19347;SDS011;9810;52.480;9.806;2022-10-31T16:37:46;32.73;;;16.37;;
19347;SDS011;9810;52.480;9.806;2022-10-31T16:40:14;32.27;;;16.77;;
19347;SDS011;9810;52.480;9.806;2022-10-31T16:42:42;36.40;;;17.77;;
19347;SDS011;9810;52.480;9.806;2022-10-31T16:45:15;38.83;;;18.07;;
19347;SDS011;9810;52.480;9.806;2022-10-31T16:47:44;35.43;;;17.50;;
19347;SDS011;9810;52.480;9.806;2022-10-31T16:50:14;41.53;;;17.70;;
19347;SDS011;9810;52.480;9.806;2022-10-31T16:52:43;37.15;;;21.25;;
19347;SDS011;9810;52.480;9.806;2022-10-31T16:55:14;36.97;;;18.27;;
19347;SDS011;9810;52.480;9.806;2022-10-31T16:57:42;38.93;;;18.73;;
19347;SDS011;9810;52.480;9.806;2022-10-31T17:00:13;39.23;;;18.33;;
19347;SDS011;9810;52.480;9.806;2022-10-31T17:02:43;36.73;;;17.17;;
19347;SDS011;9810;52.480;9.806;2022-10-31T17:05:12;32.30;;;17.90;;
19347;SDS011;9810;52.480;9.806;2022-10-31T17:07:40;34.37;;;17.53;;
19347;SDS011;9810;52.480;9.806;2022-10-31T17:10:14;35.00;;;16.93;;
19347;SDS011;9810;52.480;9.806;2022-10-31T17:12:42;35.10;;;16.03;;
19347;SDS011;9810;52.480;9.806;2022-10-31T17:15:14;42.70;;;16.63;;
19347;SDS011;9810;52.480;9.806;2022-10-31T17:17:44;30.57;;;16.80;;
19347;SDS011;9810;52.480;9.806;2022-10-31T17:20:14;33.53;;;17.00;;
19347;SDS011;9810;52.480;9.806;2022-10-31T17:22:47;25.47;;;15.27;;
19347;SDS011;9810;52.480;9.806;2022-10-31T17:25:17;31.90;;;15.70;;
19347;SDS011;9810;52.480;9.806;2022-10-31T17:27:46;28.13;;;13.93;;
19347;SDS011;9810;52.480;9.806;2022-10-31T17:30:13;35.30;;;15.87;;
19347;SDS011;9810;52.480;9.806;2022-10-31T17:32:43;31.27;;;15.27;;
19347;SDS011;9810;52.480;9.806;2022-10-31T17:35:10;40.05;;;18.35;;
19347;SDS011;9810;52.480;9.806;2022-10-31T17:37:39;39.53;;;17.23;;
19347;SDS011;9810;52.480;9.806;2022-10-31T17:40:07;33.07;;;17.40;;
19347;SDS011;9810;52.480;9.806;2022-10-31T17:42:37;42.97;;;19.20;;
19347;SDS011;9810;52.480;9.806;2022-10-31T17:45:05;41.00;;;18.10;;
19347;SDS011;9810;52.480;9.806;2022-10-31T17:47:33;42.45;;;20.25;;
19347;SDS011;9810;52.480;9.806;2022-10-31T17:50:00;33.47;;;17.90;;
19347;SDS011;9810;52.480;9.806;2022-10-31T17:52:27;41.13;;;18.00;;
19347;SDS011;9810;52.480;9.806;2022-10-31T17:54:57;35.93;;;17.10;;
19347;SDS011;9810;52.480;9.806;2022-10-31T17:57:33;34.27;;;16.53;;
19347;SDS011;9810;52.480;9.806;2022-10-31T18:00:03;37.53;;;17.87;;
19347;SDS011;9810;52.480;9.806;2022-10-31T18:02:32;38.93;;;17.63;;
19347;SDS011;9810;52.480;9.806;2022-10-31T18:04:59;35.60;;;17.57;;
19347;SDS011;9810;52.480;9.806;2022-10-31T18:07:27;41.80;;;18.70;;
19347;SDS011;9810;52.480;9.806;2022-10-31T18:09:54;32.13;;;16.13;;
19347;SDS011;9810;52.480;9.806;2022-10-31T18:12:22;36.27;;;17.97;;
19347;SDS011;9810;52.480;9.806;2022-10-31T18:14:53;40.80;;;18.10;;
19347;SDS011;9810;52.480;9.806;2022-10-31T18:17:21;40.90;;;18.50;;
19347;SDS011;9810;52.480;9.806;2022-10-31T18:19:48;41.00;;;19.83;;
19347;SDS011;9810;52.480;9.806;2022-10-31T18:22:15;39.40;;;18.83;;
19347;SDS011;9810;52.480;9.806;2022-10-31T18:24:42;37.87;;;19.73;;
19347;SDS011;9810;52.480;9.806;2022-10-31T18:27:09;41.20;;;17.63;;
19347;SDS011;9810;52.480;9.806;2022-10-31T18:29:36;40.87;;;19.70;;
19347;SDS011;9810;52.480;9.806;2022-10-31T18:32:03;38.17;;;19.20;;
19347;SDS011;9810;52.480;9.806;2022-10-31T18:34:32;38.40;;;18.17;;
19347;SDS011;9810;52.480;9.806;2022-10-31T18:36:59;48.27;;;18.77;;
19347;SDS011;9810;52.480;9.806;2022-10-31T18:39:27;38.30;;;17.50;;
19347;SDS011;9810;52.480;9.806;2022-10-31T18:41:54;40.13;;;18.93;;
19347;SDS011;9810;52.480;9.806;2022-10-31T18:44:21;50.63;;;19.03;;
19347;SDS011;9810;52.480;9.806;2022-10-31T18:46:48;56.13;;;21.83;;
19347;SDS011;9810;52.480;9.806;2022-10-31T18:49:15;39.23;;;17.60;;
19347;SDS011;9810;52.480;9.806;2022-10-31T18:51:48;48.57;;;20.43;;
19347;SDS011;9810;52.480;9.806;2022-10-31T18:54:15;39.50;;;19.47;;
19347;SDS011;9810;52.480;9.806;2022-10-31T18:56:42;41.87;;;19.53;;
19347;SDS011;9810;52.480;9.806;2022-10-31T18:59:09;46.10;;;21.50;;
19347;SDS011;9810;52.480;9.806;2022-10-31T19:01:37;53.93;;;20.70;;
19347;SDS011;9810;52.480;9.806;2022-10-31T19:04:04;41.77;;;20.30;;
19347;SDS011;9810;52.480;9.806;2022-10-31T19:06:31;41.33;;;20.87;;
19347;SDS011;9810;52.480;9.806;2022-10-31T19:09:00;47.63;;;21.63;;